sensor_id;sensor_type;location;lat;lon;timestamp;pressure;altitude;pressure_sealevel;temperature;humidity
13420;BME280;6781;58.440;15.470;2023-07-31T00:00:09;99937.88;;;15.39;100.00
13420;BME280;6781;58.440;15.470;2023-07-31T00:02:35;99952.72;;;15.39;100.00
13420;BME280;6781;58.440;15.470;2023-07-31T00:05:02;99942.41;;;15.45;100.00
13420;BME280;6781;58.440;15.470;2023-07-31T00:07:29;99951.06;;;15.46;100.00
13420;BME280;6781;58.440;15.470;2023-07-31T00:09:58;99951.25;;;15.44;100.00
13420;BME280;6781;58.440;15.470;2023-07-31T00:12:25;99952.53;;;15.48;100.00
13420;BME280;6781;58.440;15.470;2023-07-31T00:14:52;99948.94;;;15.49;100.00
13420;BME280;6781;58.440;15.470;2023-07-31T00:17:19;99948.44;;;15.54;100.00
13420;BME280;6781;58.440;15.470;2023-07-31T00:19:45;99942.38;;;15.53;100.00
13420;BME280;6781;58.440;15.470;2023-07-31T00:22:14;99957.44;;;15.51;100.00
13420;BME280;6781;58.440;15.470;2023-07-31T00:24:41;99953.03;;;15.52;100.00
13420;BME280;6781;58.440;15.470;2023-07-31T00:27:09;99961.84;;;15.51;100.00
13420;BME280;6781;58.440;15.470;2023-07-31T00:29:36;99810.09;;;14.66;100.00
13420;BME280;6781;58.440;15.470;2023-07-31T00:32:03;99952.88;;;15.45;100.00
13420;BME280;6781;58.440;15.470;2023-07-31T00:34:30;99865.16;;;15.04;100.00
13420;BME280;6781;58.440;15.470;2023-07-31T00:36:57;99914.03;;;15.34;100.00
13420;BME280;6781;58.440;15.470;2023-07-31T00:39:24;99916.50;;;15.27;100.00
13420;BME280;6781;58.440;15.470;2023-07-31T00:41:51;99959.72;;;15.54;100.00
13420;BME280;6781;58.440;15.470;2023-07-31T00:44:20;99898.75;;;15.15;100.00
13420;BME280;6781;58.440;15.470;2023-07-31T00:46:47;99908.72;;;15.11;100.00
13420;BME280;6781;58.440;15.470;2023-07-31T00:49:14;99951.72;;;15.48;100.00
13420;BME280;6781;58.440;15.470;2023-07-31T00:51:42;99914.47;;;14.98;100.00
13420;BME280;6781;58.440;15.470;2023-07-31T00:54:09;100005.97;;;15.38;100.00
13420;BME280;6781;58.440;15.470;2023-07-31T00:56:36;99779.81;;;14.08;100.00
13420;BME280;6781;58.440;15.470;2023-07-31T00:59:03;100005.63;;;15.49;100.00
13420;BME280;6781;58.440;15.470;2023-07-31T01:01:32;99808.31;;;14.26;100.00
13420;BME280;6781;58.440;15.470;2023-07-31T01:03:59;99843.22;;;14.57;100.00
13420;BME280;6781;58.440;15.470;2023-07-31T01:06:33;100012.00;;;15.54;100.00
13420;BME280;6781;58.440;15.470;2023-07-31T01:09:09;100016.22;;;15.55;100.00
13420;BME280;6781;58.440;15.470;2023-07-31T01:11:44;99889.66;;;14.86;100.00
13420;BME280;6781;58.440;15.470;2023-07-31T01:14:13;99998.91;;;15.62;100.00
13420;BME280;6781;58.440;15.470;2023-07-31T01:16:42;100007.72;;;15.61;100.00
13420;BME280;6781;58.440;15.470;2023-07-31T01:19:10;99826.75;;;14.57;100.00
13420;BME280;6781;58.440;15.470;2023-07-31T01:21:54;99981.88;;;15.67;100.00
13420;BME280;6781;58.440;15.470;2023-07-31T01:24:28;99974.09;;;15.58;100.00
13420;BME280;6781;58.440;15.470;2023-07-31T01:27:04;99938.56;;;15.17;100.00
13420;BME280;6781;58.440;15.470;2023-07-31T01:29:38;99832.63;;;14.51;100.00
13420;BME280;6781;58.440;15.470;2023-07-31T01:32:10;99968.25;;;15.32;100.00
13420;BME280;6781;58.440;15.470;2023-07-31T01:34:39;99979.50;;;15.49;100.00
13420;BME280;6781;58.440;15.470;2023-07-31T01:37:07;99853.31;;;14.60;100.00
13420;BME280;6781;58.440;15.470;2023-07-31T01:39:34;100001.81;;;15.68;100.00
13420;BME280;6781;58.440;15.470;2023-07-31T01:42:03;99968.41;;;15.39;100.00
13420;BME280;6781;58.440;15.470;2023-07-31T01:44:30;100014.88;;;15.68;100.00
13420;BME280;6781;58.440;15.470;2023-07-31T01:46:58;100000.59;;;15.39;100.00
13420;BME280;6781;58.440;15.470;2023-07-31T01:49:25;99949.88;;;15.01;100.00
13420;BME280;6781;58.440;15.470;2023-07-31T01:51:52;99981.16;;;15.34;100.00
13420;BME280;6781;58.440;15.470;2023-07-31T01:54:19;100024.38;;;15.60;100.00
13420;BME280;6781;58.440;15.470;2023-07-31T01:56:46;100010.34;;;15.61;100.00
13420;BME280;6781;58.440;15.470;2023-07-31T01:59:15;100022.44;;;15.54;100.00
13420;BME280;6781;58.440;15.470;2023-07-31T02:01:42;100008.44;;;15.23;100.00
13420;BME280;6781;58.440;15.470;2023-07-31T02:04:09;100023.75;;;15.50;100.00
13420;BME280;6781;58.440;15.470;2023-07-31T02:09:11;100035.03;;;15.43;100.00
13420;BME280;6781;58.440;15.470;2023-07-31T02:11:39;100026.72;;;15.31;100.00
13420;BME280;6781;58.440;15.470;2023-07-31T02:14:06;99892.00;;;14.49;100.00
13420;BME280;6781;58.440;15.470;2023-07-31T02:16:35;99956.09;;;14.84;100.00
13420;BME280;6781;58.440;15.470;2023-07-31T02:19:02;100079.66;;;15.33;100.00
13420;BME280;6781;58.440;15.470;2023-07-31T02:21:29;100037.84;;;15.33;100.00
13420;BME280;6781;58.440;15.470;2023-07-31T02:23:56;100034.25;;;15.34;100.00
13420;BME280;6781;58.440;15.470;2023-07-31T02:26:22;100054.66;;;15.30;100.00
13420;BME280;6781;58.440;15.470;2023-07-31T02:28:50;99997.22;;;14.98;100.00
13420;BME280;6781;58.440;15.470;2023-07-31T02:31:17;99810.94;;;14.01;100.00
13420;BME280;6781;58.440;15.470;2023-07-31T02:33:45;99933.56;;;14.75;100.00
13420;BME280;6781;58.440;15.470;2023-07-31T02:36:12;99974.84;;;14.95;100.00
13420;BME280;6781;58.440;15.470;2023-07-31T02:38:40;99816.97;;;13.94;100.00
13420;BME280;6781;58.440;15.470;2023-07-31T02:41:07;99971.91;;;14.82;100.00
13420;BME280;6781;58.440;15.470;2023-07-31T02:43:34;99915.00;;;14.53;100.00
13420;BME280;6781;58.440;15.470;2023-07-31T02:46:01;100027.22;;;15.18;100.00
13420;BME280;6781;58.440;15.470;2023-07-31T02:48:28;100041.78;;;15.13;100.00
13420;BME280;6781;58.440;15.470;2023-07-31T02:50:56;100011.09;;;14.82;100.00
13420;BME280;6781;58.440;15.470;2023-07-31T02:53:24;100027.06;;;14.87;100.00
13420;BME280;6781;58.440;15.470;2023-07-31T02:55:51;100074.41;;;15.01;100.00
13420;BME280;6781;58.440;15.470;2023-07-31T02:58:18;100078.31;;;14.96;100.00
13420;BME280;6781;58.440;15.470;2023-07-31T03:00:45;100068.53;;;14.98;100.00
13420;BME280;6781;58.440;15.470;2023-07-31T03:03:12;100021.69;;;14.73;100.00
13420;BME280;6781;58.440;15.470;2023-07-31T03:05:39;100079.31;;;14.95;100.00
13420;BME280;6781;58.440;15.470;2023-07-31T03:08:07;100011.22;;;14.48;100.00
13420;BME280;6781;58.440;15.470;2023-07-31T03:10:34;100075.53;;;14.90;100.00
13420;BME280;6781;58.440;15.470;2023-07-31T03:13:01;100076.34;;;14.82;100.00
13420;BME280;6781;58.440;15.470;2023-07-31T03:15:28;99905.25;;;13.73;100.00
13420;BME280;6781;58.440;15.470;2023-07-31T03:17:55;100069.81;;;14.78;100.00
13420;BME280;6781;58.440;15.470;2023-07-31T03:20:22;100053.81;;;14.73;100.00
13420;BME280;6781;58.440;15.470;2023-07-31T03:22:50;100066.88;;;14.73;100.00
13420;BME280;6781;58.440;15.470;2023-07-31T03:25:19;100074.38;;;14.76;100.00
13420;BME280;6781;58.440;15.470;2023-07-31T03:27:46;100017.19;;;14.41;100.00
13420;BME280;6781;58.440;15.470;2023-07-31T03:30:13;100021.59;;;14.40;100.00
13420;BME280;6781;58.440;15.470;2023-07-31T03:32:40;100031.59;;;14.45;100.00
13420;BME280;6781;58.440;15.470;2023-07-31T03:35:07;99946.31;;;13.79;100.00
13420;BME280;6781;58.440;15.470;2023-07-31T03:37:34;100083.47;;;14.56;100.00
13420;BME280;6781;58.440;15.470;2023-07-31T03:40:01;100026.13;;;14.22;100.00
13420;BME280;6781;58.440;15.470;2023-07-31T03:42:56;99848.25;;;13.01;100.00
13420;BME280;6781;58.440;15.470;2023-07-31T03:45:37;99931.28;;;13.64;100.00
13420;BME280;6781;58.440;15.470;2023-07-31T03:48:13;100074.97;;;14.46;100.00
13420;BME280;6781;58.440;15.470;2023-07-31T03:50:55;99823.22;;;13.00;100.00
13420;BME280;6781;58.440;15.470;2023-07-31T03:53:22;100067.16;;;14.54;100.00
13420;BME280;6781;58.440;15.470;2023-07-31T03:55:54;100060.31;;;14.53;100.00
13420;BME280;6781;58.440;15.470;2023-07-31T03:58:23;99938.59;;;13.61;100.00
13420;BME280;6781;58.440;15.470;2023-07-31T04:00:50;100052.13;;;14.48;100.00
13420;BME280;6781;58.440;15.470;2023-07-31T04:03:17;99977.78;;;13.93;100.00
13420;BME280;6781;58.440;15.470;2023-07-31T04:05:44;100062.84;;;14.37;100.00
13420;BME280;6781;58.440;15.470;2023-07-31T04:08:11;100047.44;;;14.17;100.00
13420;BME280;6781;58.440;15.470;2023-07-31T04:10:38;100048.44;;;14.16;100.00
13420;BME280;6781;58.440;15.470;2023-07-31T04:13:05;100074.88;;;14.29;100.00
13420;BME280;6781;58.440;15.470;2023-07-31T04:15:33;100087.25;;;14.27;100.00
13420;BME280;6781;58.440;15.470;2023-07-31T04:18:00;100042.47;;;13.98;100.00
13420;BME280;6781;58.440;15.470;2023-07-31T04:20:27;99970.00;;;13.25;100.00
13420;BME280;6781;58.440;15.470;2023-07-31T04:22:54;100099.34;;;14.28;100.00
13420;BME280;6781;58.440;15.470;2023-07-31T04:25:21;100090.53;;;14.29;100.00
13420;BME280;6781;58.440;15.470;2023-07-31T04:27:48;99970.28;;;13.48;100.00
13420;BME280;6781;58.440;15.470;2023-07-31T04:30:15;99935.72;;;13.38;100.00
13420;BME280;6781;58.440;15.470;2023-07-31T04:32:44;100091.53;;;14.37;100.00
13420;BME280;6781;58.440;15.470;2023-07-31T04:35:11;100085.72;;;14.43;100.00
13420;BME280;6781;58.440;15.470;2023-07-31T04:37:38;100000.72;;;13.90;100.00
13420;BME280;6781;58.440;15.470;2023-07-31T04:40:06;100085.72;;;14.43;100.00
13420;BME280;6781;58.440;15.470;2023-07-31T04:42:33;99999.75;;;13.91;100.00
13420;BME280;6781;58.440;15.470;2023-07-31T04:45:01;100066.41;;;14.27;100.00
13420;BME280;6781;58.440;15.470;2023-07-31T04:47:27;99984.78;;;13.93;100.00
13420;BME280;6781;58.440;15.470;2023-07-31T04:49:56;99944.94;;;13.58;100.00
13420;BME280;6781;58.440;15.470;2023-07-31T04:52:23;100117.09;;;14.59;100.00
13420;BME280;6781;58.440;15.470;2023-07-31T04:54:50;100142.22;;;14.60;100.00
13420;BME280;6781;58.440;15.470;2023-07-31T04:57:17;100104.91;;;14.33;100.00
13420;BME280;6781;58.440;15.470;2023-07-31T04:59:44;100169.97;;;14.69;100.00
13420;BME280;6781;58.440;15.470;2023-07-31T05:02:12;100036.56;;;13.80;100.00
13420;BME280;6781;58.440;15.470;2023-07-31T05:04:39;100201.00;;;14.72;100.00
13420;BME280;6781;58.440;15.470;2023-07-31T05:07:07;100033.66;;;13.91;100.00
13420;BME280;6781;58.440;15.470;2023-07-31T05:09:34;99942.97;;;13.60;100.00
13420;BME280;6781;58.440;15.470;2023-07-31T05:12:03;100149.50;;;14.98;100.00
13420;BME280;6781;58.440;15.470;2023-07-31T05:14:31;100046.09;;;14.05;100.00
13420;BME280;6781;58.440;15.470;2023-07-31T05:16:58;100165.28;;;14.81;100.00
13420;BME280;6781;58.440;15.470;2023-07-31T05:19:25;100191.97;;;15.17;100.00
13420;BME280;6781;58.440;15.470;2023-07-31T05:21:53;100188.88;;;15.13;100.00
13420;BME280;6781;58.440;15.470;2023-07-31T05:24:21;100140.81;;;14.90;100.00
13420;BME280;6781;58.440;15.470;2023-07-31T05:26:48;100096.72;;;14.71;100.00
13420;BME280;6781;58.440;15.470;2023-07-31T05:29:15;100079.22;;;14.55;100.00
13420;BME280;6781;58.440;15.470;2023-07-31T05:31:42;100154.09;;;15.13;100.00
13420;BME280;6781;58.440;15.470;2023-07-31T05:34:09;100172.75;;;15.42;100.00
13420;BME280;6781;58.440;15.470;2023-07-31T05:36:36;100104.28;;;14.98;100.00
13420;BME280;6781;58.440;15.470;2023-07-31T05:39:03;100128.63;;;15.31;100.00
13420;BME280;6781;58.440;15.470;2023-07-31T05:41:35;100139.72;;;15.66;100.00
13420;BME280;6781;58.440;15.470;2023-07-31T05:44:02;100144.94;;;15.82;100.00
13420;BME280;6781;58.440;15.470;2023-07-31T05:46:30;100130.25;;;15.81;100.00
13420;BME280;6781;58.440;15.470;2023-07-31T05:48:58;100036.03;;;15.25;100.00
13420;BME280;6781;58.440;15.470;2023-07-31T05:51:26;100079.41;;;15.83;100.00
13420;BME280;6781;58.440;15.470;2023-07-31T05:53:54;100118.09;;;15.96;100.00
13420;BME280;6781;58.440;15.470;2023-07-31T05:56:21;100149.78;;;16.09;100.00
13420;BME280;6781;58.440;15.470;2023-07-31T05:58:49;100045.25;;;15.77;100.00
13420;BME280;6781;58.440;15.470;2023-07-31T06:01:17;100097.53;;;16.32;100.00
13420;BME280;6781;58.440;15.470;2023-07-31T06:03:44;100038.53;;;16.21;100.00
13420;BME280;6781;58.440;15.470;2023-07-31T06:06:11;100040.78;;;16.33;100.00
13420;BME280;6781;58.440;15.470;2023-07-31T06:08:39;99998.41;;;16.06;100.00
13420;BME280;6781;58.440;15.470;2023-07-31T06:11:06;100074.91;;;16.78;100.00
13420;BME280;6781;58.440;15.470;2023-07-31T06:13:34;99921.25;;;16.02;100.00
13420;BME280;6781;58.440;15.470;2023-07-31T06:16:03;99965.38;;;16.05;100.00
13420;BME280;6781;58.440;15.470;2023-07-31T06:18:32;99897.25;;;15.68;100.00
13420;BME280;6781;58.440;15.470;2023-07-31T06:20:59;100100.53;;;16.91;100.00
13420;BME280;6781;58.440;15.470;2023-07-31T06:23:26;100028.81;;;16.69;100.00
13420;BME280;6781;58.440;15.470;2023-07-31T06:25:53;99905.44;;;16.18;100.00
13420;BME280;6781;58.440;15.470;2023-07-31T06:28:20;100016.34;;;16.71;100.00
13420;BME280;6781;58.440;15.470;2023-07-31T06:30:47;99869.28;;;16.22;100.00
13420;BME280;6781;58.440;15.470;2023-07-31T06:33:15;99994.56;;;16.94;100.00
13420;BME280;6781;58.440;15.470;2023-07-31T06:35:42;100051.66;;;17.21;100.00
13420;BME280;6781;58.440;15.470;2023-07-31T06:38:11;99965.31;;;16.67;100.00
13420;BME280;6781;58.440;15.470;2023-07-31T06:40:38;99970.50;;;16.75;100.00
13420;BME280;6781;58.440;15.470;2023-07-31T06:43:05;99997.03;;;17.10;100.00
13420;BME280;6781;58.440;15.470;2023-07-31T06:45:33;100037.81;;;17.12;100.00
13420;BME280;6781;58.440;15.470;2023-07-31T06:48:01;99992.75;;;16.94;100.00
13420;BME280;6781;58.440;15.470;2023-07-31T06:50:30;100066.31;;;17.30;100.00
13420;BME280;6781;58.440;15.470;2023-07-31T06:52:58;100049.59;;;17.46;100.00
13420;BME280;6781;58.440;15.470;2023-07-31T06:55:25;100076.97;;;17.43;100.00
13420;BME280;6781;58.440;15.470;2023-07-31T06:57:54;100049.22;;;17.49;100.00
13420;BME280;6781;58.440;15.470;2023-07-31T07:00:22;100007.63;;;17.16;100.00
13420;BME280;6781;58.440;15.470;2023-07-31T07:02:49;100045.72;;;17.56;100.00
13420;BME280;6781;58.440;15.470;2023-07-31T07:05:17;99969.38;;;17.07;100.00
13420;BME280;6781;58.440;15.470;2023-07-31T07:07:45;100044.19;;;17.62;100.00
13420;BME280;6781;58.440;15.470;2023-07-31T07:10:12;100036.72;;;17.74;100.00
13420;BME280;6781;58.440;15.470;2023-07-31T07:12:39;99988.19;;;17.40;100.00
13420;BME280;6781;58.440;15.470;2023-07-31T07:15:07;99908.38;;;16.61;100.00
13420;BME280;6781;58.440;15.470;2023-07-31T07:17:35;100005.91;;;17.38;100.00
13420;BME280;6781;58.440;15.470;2023-07-31T07:20:02;100004.47;;;17.65;100.00
13420;BME280;6781;58.440;15.470;2023-07-31T07:22:30;99972.81;;;17.37;100.00
13420;BME280;6781;58.440;15.470;2023-07-31T07:24:58;99963.69;;;17.63;100.00
13420;BME280;6781;58.440;15.470;2023-07-31T07:27:25;99947.03;;;17.85;100.00
13420;BME280;6781;58.440;15.470;2023-07-31T07:29:52;99878.72;;;17.93;100.00
13420;BME280;6781;58.440;15.470;2023-07-31T07:32:20;99910.59;;;18.54;100.00
13420;BME280;6781;58.440;15.470;2023-07-31T07:34:47;99842.47;;;18.03;100.00
13420;BME280;6781;58.440;15.470;2023-07-31T07:37:15;99797.00;;;17.75;100.00
13420;BME280;6781;58.440;15.470;2023-07-31T07:39:42;99928.50;;;18.93;100.00
13420;BME280;6781;58.440;15.470;2023-07-31T07:42:10;99907.69;;;19.33;100.00
13420;BME280;6781;58.440;15.470;2023-07-31T07:44:37;99886.66;;;19.39;100.00
13420;BME280;6781;58.440;15.470;2023-07-31T07:47:04;99852.03;;;19.83;100.00
13420;BME280;6781;58.440;15.470;2023-07-31T07:49:33;99698.47;;;19.10;100.00
13420;BME280;6781;58.440;15.470;2023-07-31T07:52:00;99687.13;;;18.97;100.00
13420;BME280;6781;58.440;15.470;2023-07-31T07:54:27;99781.38;;;19.74;100.00
13420;BME280;6781;58.440;15.470;2023-07-31T07:56:54;99813.00;;;20.07;100.00
13420;BME280;6781;58.440;15.470;2023-07-31T07:59:22;99797.00;;;20.08;100.00
13420;BME280;6781;58.440;15.470;2023-07-31T08:01:49;99799.81;;;20.27;100.00
13420;BME280;6781;58.440;15.470;2023-07-31T08:04:16;99810.16;;;20.35;100.00
13420;BME280;6781;58.440;15.470;2023-07-31T08:06:43;99791.31;;;20.25;100.00
13420;BME280;6781;58.440;15.470;2023-07-31T08:09:10;99766.63;;;20.39;100.00
13420;BME280;6781;58.440;15.470;2023-07-31T08:11:37;99750.16;;;20.37;100.00
13420;BME280;6781;58.440;15.470;2023-07-31T08:14:04;99703.38;;;20.26;100.00
13420;BME280;6781;58.440;15.470;2023-07-31T08:16:33;99663.97;;;19.60;100.00
13420;BME280;6781;58.440;15.470;2023-07-31T08:19:00;99742.09;;;20.05;100.00
13420;BME280;6781;58.440;15.470;2023-07-31T08:21:27;99668.78;;;19.43;100.00
13420;BME280;6781;58.440;15.470;2023-07-31T08:23:54;99735.00;;;20.06;100.00
13420;BME280;6781;58.440;15.470;2023-07-31T08:26:21;99734.00;;;20.00;100.00
13420;BME280;6781;58.440;15.470;2023-07-31T08:28:48;99631.75;;;19.31;100.00
13420;BME280;6781;58.440;15.470;2023-07-31T08:31:15;99701.00;;;19.91;100.00
13420;BME280;6781;58.440;15.470;2023-07-31T08:33:45;99723.25;;;20.22;100.00
13420;BME280;6781;58.440;15.470;2023-07-31T08:36:12;99715.97;;;20.04;100.00
13420;BME280;6781;58.440;15.470;2023-07-31T08:38:39;99661.94;;;19.55;100.00
13420;BME280;6781;58.440;15.470;2023-07-31T08:41:06;99718.81;;;20.02;100.00
13420;BME280;6781;58.440;15.470;2023-07-31T08:43:33;99609.53;;;19.54;100.00
13420;BME280;6781;58.440;15.470;2023-07-31T08:46:01;99715.53;;;20.27;100.00
13420;BME280;6781;58.440;15.470;2023-07-31T08:48:29;99683.97;;;20.13;100.00
13420;BME280;6781;58.440;15.470;2023-07-31T08:50:59;99696.28;;;20.91;100.00
13420;BME280;6781;58.440;15.470;2023-07-31T08:53:26;99703.25;;;20.78;100.00
13420;BME280;6781;58.440;15.470;2023-07-31T08:55:53;99576.53;;;20.42;100.00
13420;BME280;6781;58.440;15.470;2023-07-31T08:58:21;99651.63;;;20.96;100.00
13420;BME280;6781;58.440;15.470;2023-07-31T09:00:51;99532.84;;;20.59;100.00
13420;BME280;6781;58.440;15.470;2023-07-31T09:03:19;99612.75;;;21.23;100.00
13420;BME280;6781;58.440;15.470;2023-07-31T09:05:50;99650.53;;;21.41;100.00
13420;BME280;6781;58.440;15.470;2023-07-31T09:08:21;99635.41;;;21.98;100.00
13420;BME280;6781;58.440;15.470;2023-07-31T09:10:48;99587.78;;;21.68;100.00
13420;BME280;6781;58.440;15.470;2023-07-31T09:13:16;99632.56;;;21.57;100.00
13420;BME280;6781;58.440;15.470;2023-07-31T09:15:45;99616.97;;;22.17;100.00
13420;BME280;6781;58.440;15.470;2023-07-31T09:18:12;99596.25;;;22.50;100.00
13420;BME280;6781;58.440;15.470;2023-07-31T09:20:44;99642.13;;;22.19;100.00
13420;BME280;6781;58.440;15.470;2023-07-31T09:23:12;99533.41;;;20.93;100.00
13420;BME280;6781;58.440;15.470;2023-07-31T09:25:43;99636.78;;;22.26;100.00
13420;BME280;6781;58.440;15.470;2023-07-31T09:28:11;99575.72;;;22.34;100.00
13420;BME280;6781;58.440;15.470;2023-07-31T09:30:46;99581.88;;;21.91;100.00
13420;BME280;6781;58.440;15.470;2023-07-31T09:33:14;99606.84;;;22.92;100.00
13420;BME280;6781;58.440;15.470;2023-07-31T09:35:42;99569.69;;;22.57;100.00
13420;BME280;6781;58.440;15.470;2023-07-31T09:38:12;99567.81;;;22.16;100.00
13420;BME280;6781;58.440;15.470;2023-07-31T09:40:40;99590.25;;;22.25;100.00
13420;BME280;6781;58.440;15.470;2023-07-31T09:43:10;99599.63;;;22.99;100.00
13420;BME280;6781;58.440;15.470;2023-07-31T09:45:38;99581.88;;;22.88;100.00
13420;BME280;6781;58.440;15.470;2023-07-31T09:48:07;99521.09;;;23.46;100.00
13420;BME280;6781;58.440;15.470;2023-07-31T09:50:36;99568.88;;;22.56;98.01
13420;BME280;6781;58.440;15.470;2023-07-31T09:53:05;99597.56;;;23.01;100.00
13420;BME280;6781;58.440;15.470;2023-07-31T09:55:33;99601.88;;;23.49;100.00
13420;BME280;6781;58.440;15.470;2023-07-31T09:58:05;99589.69;;;23.36;100.00
13420;BME280;6781;58.440;15.470;2023-07-31T10:00:34;99484.56;;;22.25;98.71
13420;BME280;6781;58.440;15.470;2023-07-31T10:03:04;99553.81;;;22.87;100.00
13420;BME280;6781;58.440;15.470;2023-07-31T10:05:34;99412.34;;;21.53;100.00
13420;BME280;6781;58.440;15.470;2023-07-31T10:08:02;99569.81;;;22.50;100.00
13420;BME280;6781;58.440;15.470;2023-07-31T10:10:30;99581.28;;;22.44;100.00
13420;BME280;6781;58.440;15.470;2023-07-31T10:12:59;99593.25;;;22.28;100.00
13420;BME280;6781;58.440;15.470;2023-07-31T10:15:27;99570.19;;;21.81;100.00
13420;BME280;6781;58.440;15.470;2023-07-31T10:17:57;99511.28;;;20.75;100.00
13420;BME280;6781;58.440;15.470;2023-07-31T10:20:26;99564.03;;;20.69;100.00
13420;BME280;6781;58.440;15.470;2023-07-31T10:22:54;99594.28;;;20.60;100.00
13420;BME280;6781;58.440;15.470;2023-07-31T10:25:22;99628.84;;;20.76;100.00
13420;BME280;6781;58.440;15.470;2023-07-31T10:27:49;99611.91;;;20.59;100.00
13420;BME280;6781;58.440;15.470;2023-07-31T10:30:19;99582.22;;;20.39;100.00
13420;BME280;6781;58.440;15.470;2023-07-31T10:32:47;99622.56;;;20.77;100.00
13420;BME280;6781;58.440;15.470;2023-07-31T10:35:17;99615.75;;;21.26;100.00
13420;BME280;6781;58.440;15.470;2023-07-31T10:37:44;99612.81;;;21.84;100.00
13420;BME280;6781;58.440;15.470;2023-07-31T10:40:13;99572.19;;;21.85;100.00
13420;BME280;6781;58.440;15.470;2023-07-31T10:42:47;99552.97;;;21.96;100.00
13420;BME280;6781;58.440;15.470;2023-07-31T10:45:24;99446.00;;;21.39;100.00
13420;BME280;6781;58.440;15.470;2023-07-31T10:47:58;99611.94;;;23.05;100.00
13420;BME280;6781;58.440;15.470;2023-07-31T10:50:29;99513.50;;;23.15;100.00
13420;BME280;6781;58.440;15.470;2023-07-31T10:52:59;99593.44;;;24.22;100.00
13420;BME280;6781;58.440;15.470;2023-07-31T10:55:31;99592.19;;;24.53;100.00
13420;BME280;6781;58.440;15.470;2023-07-31T10:58:06;99572.53;;;24.82;100.00
13420;BME280;6781;58.440;15.470;2023-07-31T11:00:33;99532.06;;;24.58;100.00
13420;BME280;6781;58.440;15.470;2023-07-31T11:03:04;99495.25;;;24.17;100.00
13420;BME280;6781;58.440;15.470;2023-07-31T11:05:47;99475.75;;;23.94;100.00
13420;BME280;6781;58.440;15.470;2023-07-31T11:08:16;99559.75;;;24.34;100.00
13420;BME280;6781;58.440;15.470;2023-07-31T11:10:45;99562.63;;;23.46;100.00
13420;BME280;6781;58.440;15.470;2023-07-31T11:13:12;99490.13;;;23.00;100.00
13420;BME280;6781;58.440;15.470;2023-07-31T11:15:40;99469.91;;;23.05;100.00
13420;BME280;6781;58.440;15.470;2023-07-31T11:18:07;99550.84;;;24.00;100.00
13420;BME280;6781;58.440;15.470;2023-07-31T11:20:37;99518.56;;;23.28;100.00
13420;BME280;6781;58.440;15.470;2023-07-31T11:23:07;99384.09;;;22.43;100.00
13420;BME280;6781;58.440;15.470;2023-07-31T11:25:36;99542.81;;;23.13;100.00
13420;BME280;6781;58.440;15.470;2023-07-31T11:28:04;99489.56;;;22.98;100.00
13420;BME280;6781;58.440;15.470;2023-07-31T11:30:32;99508.56;;;23.18;100.00
13420;BME280;6781;58.440;15.470;2023-07-31T11:33:00;99548.16;;;23.60;100.00
13420;BME280;6781;58.440;15.470;2023-07-31T11:35:29;99539.38;;;23.48;100.00
13420;BME280;6781;58.440;15.470;2023-07-31T11:37:56;99520.16;;;23.29;100.00
13420;BME280;6781;58.440;15.470;2023-07-31T11:40:24;99435.59;;;22.76;100.00
13420;BME280;6781;58.440;15.470;2023-07-31T11:42:56;99516.38;;;23.60;100.00
13420;BME280;6781;58.440;15.470;2023-07-31T11:45:26;99506.69;;;23.77;100.00
13420;BME280;6781;58.440;15.470;2023-07-31T11:47:54;99489.91;;;23.36;100.00
13420;BME280;6781;58.440;15.470;2023-07-31T11:50:23;99366.03;;;22.75;100.00
13420;BME280;6781;58.440;15.470;2023-07-31T11:52:55;99511.72;;;23.90;100.00
13420;BME280;6781;58.440;15.470;2023-07-31T11:55:25;99496.03;;;24.00;92.59
13420;BME280;6781;58.440;15.470;2023-07-31T11:57:54;99500.66;;;24.22;100.00
13420;BME280;6781;58.440;15.470;2023-07-31T12:00:23;99506.16;;;24.04;100.00
13420;BME280;6781;58.440;15.470;2023-07-31T12:02:50;99482.72;;;23.84;100.00
13420;BME280;6781;58.440;15.470;2023-07-31T12:05:18;99436.41;;;23.34;100.00
13420;BME280;6781;58.440;15.470;2023-07-31T12:07:47;99512.31;;;24.66;100.00
13420;BME280;6781;58.440;15.470;2023-07-31T12:10:27;99471.50;;;24.67;100.00
13420;BME280;6781;58.440;15.470;2023-07-31T12:13:02;99499.78;;;24.95;100.00
13420;BME280;6781;58.440;15.470;2023-07-31T12:15:32;99463.69;;;24.77;100.00
13420;BME280;6781;58.440;15.470;2023-07-31T12:17:59;99423.97;;;24.32;98.13
13420;BME280;6781;58.440;15.470;2023-07-31T12:20:26;99465.94;;;24.85;99.44
13420;BME280;6781;58.440;15.470;2023-07-31T12:22:56;99494.81;;;24.82;93.27
13420;BME280;6781;58.440;15.470;2023-07-31T12:25:30;99487.09;;;25.14;97.64
13420;BME280;6781;58.440;15.470;2023-07-31T12:27:57;99484.13;;;24.77;98.47
13420;BME280;6781;58.440;15.470;2023-07-31T12:30:28;99498.56;;;24.52;96.51
13420;BME280;6781;58.440;15.470;2023-07-31T12:32:55;99464.31;;;24.51;96.12
13420;BME280;6781;58.440;15.470;2023-07-31T12:35:22;99442.91;;;23.67;87.86
13420;BME280;6781;58.440;15.470;2023-07-31T12:37:49;99379.97;;;22.94;83.95
13420;BME280;6781;58.440;15.470;2023-07-31T12:40:16;99475.38;;;23.51;95.64
13420;BME280;6781;58.440;15.470;2023-07-31T12:42:44;99422.94;;;23.24;94.42
13420;BME280;6781;58.440;15.470;2023-07-31T12:45:11;99450.53;;;23.40;98.61
13420;BME280;6781;58.440;15.470;2023-07-31T12:47:38;99498.16;;;23.52;100.00
13420;BME280;6781;58.440;15.470;2023-07-31T12:50:07;99469.53;;;23.37;100.00
13420;BME280;6781;58.440;15.470;2023-07-31T12:52:34;99465.19;;;23.19;100.00
13420;BME280;6781;58.440;15.470;2023-07-31T12:55:01;99494.63;;;23.23;97.39